Aérodrome :
LOGIN :

S'inscrire | Disclaimer

   EN    FR    IT 

 










Légende :    VFR   VFR Marginal   IFR   IFR Intensif   IFR Très Intensif
Visi : 
Plafond : 
>= 8 km
>= 3000ft
5 à 8 km
1000 à 3000 ft
1500m à 5 km
500 à 1000 ft
800 à 1500m
200 à 500 ft
< 800m
< 200 ft
Symboles :   Orages  Brouillard  Fortes neiges  Fortes précipitations  Vent > 20 kt
SIGMETs :   Divers  Orages  Givrage  Turbulence  Onde Orograph.  Cendres Volcan.







- Altitude de l'aérodrome : 3 ft
- Code IATA : LWR


EHLW - Leuuwarden Air Base

DERNIER METAR :
  • 171825Z AUTO 19003KT 170V230 9999 NCD 11/09 Q1017 BLU

METARs EXPIRÉS :
  • 171755Z AUTO 21006KT 9999 FEW340 11/09 Q1017 BLU
  • 171725Z AUTO 22007KT 9999 BKN120 12/09 Q1017 BLU
  • 171655Z AUTO 22008KT 9999 NCD 12/10 Q1017 BLU
  • 171625Z AUTO 22009KT 9999 FEW053 13/10 Q1017 BLU
  • 171555Z AUTO 22008KT 9999 SCT110 13/10 Q1017 BLU

TAF TAF EHLW
Valide du 17 à 17h jusqu'au 18 à 05h UTC


171647Z 1717/1805 22010KT CAVOK
BECMG 1800/1803 18004KT
Pas de NOTAMs connus pour ce terrain.



MET'MAP, la Météo Aéronautique d'un coup d'oeil ! - Copyright ORBIFLY Décembre 2007 - Disclaimer

ORBIFLY MET'MAP TEAM :

Programmation & Développement : Alexandra Zaïnal
Conception & Développement : Baudouin d'Aumeries
Co-Programmation & Développement : Marc-Olivier Méhu
Soutien technique & logistique : Manuel Goepfert

Contact : metmap@orbifly.com




SOURCES & CREDITS :

   NOAA